createdAt,value
2022-11-02T00:02:00.727Z,457.33333
2022-11-02T00:07:02.551Z,475.03448
2022-11-02T00:12:04.162Z,714
2022-11-02T00:17:05.846Z,668.70588
2022-11-02T00:22:07.565Z,695.21951
2022-11-02T00:27:09.182Z,444.81301
2022-11-02T00:32:10.836Z,338.87179
2022-11-02T00:37:12.469Z,374.76923
2022-11-02T00:42:14.224Z,572.57143
2022-11-02T00:47:15.902Z,425.25
2022-11-02T00:52:17.553Z,363.04762
2022-11-02T00:57:19.258Z,599.31915
2022-11-02T01:02:21.006Z,628.44444
2022-11-02T01:07:22.852Z,466.0339
2022-11-02T01:12:24.450Z,390.37681
2022-11-02T01:17:26.063Z,425.25
2022-11-02T01:22:27.654Z,390.37681
2022-11-02T01:27:29.322Z,425.25
2022-11-02T01:32:30.922Z,380.87943
2022-11-02T01:37:32.545Z,360.21622
2022-11-02T01:42:34.160Z,357.42282
2022-11-02T01:47:35.789Z,271.65957
2022-11-02T01:52:37.481Z,360.21622
2022-11-02T01:57:39.122Z,268.21053
2022-11-02T02:02:40.879Z,294
2022-11-02T02:07:42.585Z,453.09091
2022-11-02T02:12:44.196Z,530.66667
2022-11-02T02:17:45.831Z,579.05155
2022-11-02T02:22:47.449Z,525.13208
2022-11-02T02:27:49.056Z,407.15789
2022-11-02T02:32:50.632Z,514.37037
2022-11-02T02:37:52.261Z,652.04598
2022-11-02T02:42:53.910Z,714
2022-11-02T02:47:55.730Z,644
2022-11-02T02:52:57.335Z,660.27907
2022-11-02T02:57:58.944Z,714
2022-11-02T03:03:00.546Z,723.74684
2022-11-02T03:08:02.513Z,592.42105
2022-11-02T03:13:04.418Z,560
2022-11-02T03:18:06.722Z,668.70588
2022-11-02T03:23:08.649Z,585.66667
2022-11-02T03:28:10.971Z,585.66667
2022-11-02T03:33:12.594Z,606.36559
2022-11-02T03:38:14.246Z,668.70588
2022-11-02T03:43:15.909Z,677.33333
2022-11-02T03:48:17.504Z,620.92308
2022-11-02T03:53:19.116Z,644
2022-11-02T03:58:20.753Z,787.83562
2022-11-02T04:03:22.509Z,628.44444
2022-11-02T04:08:24.249Z,765.33333
2022-11-02T04:13:25.906Z,628.44444
2022-11-02T04:18:27.492Z,953.83607
2022-11-02T04:23:29.120Z,660.27907
2022-11-02T04:28:30.737Z,644
2022-11-02T04:33:32.342Z,652.04598
2022-11-02T04:38:39.119Z,652.04598
2022-11-02T04:43:40.986Z,628.44444
2022-11-02T04:48:42.574Z,592.42105
2022-11-02T04:53:44.240Z,620.92308
2022-11-02T04:58:45.912Z,660.27907
2022-11-02T05:03:47.507Z,636.13483
2022-11-02T05:08:49.105Z,530.66667
2022-11-02T05:13:50.696Z,425.25
2022-11-02T05:18:52.309Z,429.03937
2022-11-02T05:23:53.908Z,421.51938
2022-11-02T05:28:55.569Z,514.37037
2022-11-02T05:33:57.195Z,489.13274
2022-11-02T05:38:58.797Z,393.63504
2022-11-02T05:44:00.470Z,417.84615
2022-11-02T05:49:02.172Z,312.86228
2022-11-02T05:54:03.753Z,444.81301
2022-11-02T05:59:05.429Z,349.26316
2022-11-02T06:04:07.170Z,336.35669
2022-11-02T06:09:08.844Z,417.84615
2022-11-02T06:14:10.530Z,525.13208
2022-11-02T06:19:12.237Z,636.13483
2022-11-02T06:24:13.855Z,937.54839
2022-11-02T06:29:15.514Z,686.16867
2022-11-02T06:34:17.094Z,668.70588
2022-11-02T06:39:18.669Z,509.13761
2022-11-02T06:44:20.258Z,530.66667
2022-11-02T06:49:21.835Z,560
2022-11-02T06:54:23.456Z,704.49383
2022-11-02T06:59:25.119Z,606.36559
2022-11-02T07:04:26.738Z,579.05155
2022-11-02T07:09:28.344Z,606.36559
2022-11-02T07:14:29.941Z,572.57143
2022-11-02T07:19:31.617Z,509.13761
2022-11-02T07:24:33.230Z,553.90099
2022-11-02T07:29:34.924Z,525.13208
2022-11-02T07:34:36.564Z,417.84615
2022-11-02T07:39:38.191Z,620.92308
2022-11-02T07:44:39.754Z,644
2022-11-02T07:49:41.426Z,599.31915
2022-11-02T07:54:44.757Z,613.56522
2022-11-02T07:59:46.825Z,606.36559
2022-11-02T08:04:48.569Z,585.66667
2022-11-02T08:09:50.166Z,652.04598
2022-11-02T08:14:51.748Z,723.74684
2022-11-02T08:19:53.709Z,620.92308
2022-11-02T08:24:55.390Z,686.16867
2022-11-02T08:29:56.993Z,723.74684
2022-11-02T08:34:59.218Z,733.74359
2022-11-02T08:40:00.887Z,494
2022-11-02T08:45:02.516Z,466.0339
2022-11-02T08:50:04.125Z,444.81301
2022-11-02T08:55:05.736Z,484.35088
2022-11-02T09:00:07.452Z,494
2022-11-02T09:05:09.048Z,498.95495
2022-11-02T09:10:10.674Z,457.33333
2022-11-02T09:15:12.290Z,329
2022-11-02T09:20:13.928Z,315.08434
2022-11-02T09:25:15.588Z,377.80282
2022-11-02T09:30:17.237Z,384
2022-11-02T09:35:18.859Z,484.35088
2022-11-02T09:40:20.485Z,425.25
2022-11-02T09:45:22.255Z,365.91781
2022-11-02T09:50:23.923Z,304.23392
2022-11-02T09:55:25.679Z,308.49704
2022-11-02T10:00:27.289Z,410.66667
2022-11-02T10:05:28.937Z,288.13408
2022-11-02T10:10:30.573Z,282.46154
2022-11-02T10:15:32.162Z,312.86228
2022-11-02T10:20:33.974Z,255.11111
2022-11-02T10:25:35.668Z,237.33333
2022-11-02T10:30:37.279Z,196.45902
2022-11-02T10:35:57.783Z,217.77778
2022-11-02T10:41:13.982Z,222.73303
2022-11-02T10:46:15.614Z,187.47826
2022-11-02T10:51:17.219Z,188.44444
2022-11-02T10:56:18.862Z,170.47059
2022-11-02T11:01:20.699Z,134.12346
2022-11-02T11:06:22.398Z,156.41379
2022-11-02T11:11:24.122Z,175.57895
2022-11-02T11:16:26.596Z,180.01533
2022-11-02T11:21:28.249Z,206.12766
2022-11-02T11:26:29.865Z,205.01695
2022-11-02T11:31:31.611Z,158.63415
2022-11-02T11:36:33.285Z,132.95706
2022-11-02T11:41:34.939Z,123.59184
2022-11-02T11:46:36.543Z,143.35275
2022-11-02T11:51:38.178Z,121.01149
2022-11-02T11:56:39.879Z,132.3792
2022-11-02T12:01:41.584Z,124.64516
2022-11-02T12:06:43.259Z,138.93671
2022-11-02T12:11:45.315Z,160.90141
2022-11-02T12:16:46.939Z,208.37768
2022-11-02T12:21:48.574Z,196.45902
2022-11-02T12:26:50.261Z,178.22053
2022-11-02T12:31:54.531Z,140.80511
2022-11-02T12:37:27.423Z,139.55556
2022-11-02T12:42:39.228Z,162.43972
2022-11-02T12:47:44.596Z,147.30033
2022-11-02T12:52:46.276Z,156.41379
2022-11-02T12:57:47.941Z,136.5
2022-11-02T13:02:49.575Z,122.55072
2022-11-02T13:07:51.234Z,148.65116
2022-11-02T13:12:52.949Z,134.12346
2022-11-02T13:17:54.631Z,120
2022-11-02T13:22:56.375Z,118.50425
2022-11-02T13:28:02.690Z,129.54217
2022-11-02T13:33:07.665Z,157.88889
2022-11-02T13:38:09.579Z,125.71091
2022-11-02T13:43:11.235Z,117.52113
2022-11-02T13:48:12.865Z,112.76712
2022-11-02T13:53:14.497Z,142.70968
2022-11-02T13:58:16.110Z,132.95706
2022-11-02T14:03:17.692Z,131.23404
2022-11-02T14:08:19.298Z,116.06704
2022-11-02T14:13:20.861Z,106.96296
2022-11-02T14:18:22.459Z,106.53298
2022-11-02T14:23:24.065Z,111.3913
2022-11-02T14:28:25.639Z,111.3913
2022-11-02T14:33:27.224Z,108.26667
2022-11-02T14:38:28.995Z,116.06704
2022-11-02T14:43:30.594Z,104.41667
2022-11-02T14:48:32.359Z,96.47525
2022-11-02T14:53:34.013Z,94.98039
2022-11-02T14:58:35.607Z,93.87835
2022-11-02T15:03:37.298Z,94.98039
2022-11-02T15:08:38.912Z,94.98039
2022-11-02T15:13:40.757Z,104
2022-11-02T15:18:42.516Z,105.67979
2022-11-02T15:28:45.941Z,108.70588
2022-11-02T15:33:47.578Z,102.35476
2022-11-02T15:38:49.202Z,96.09877
2022-11-02T15:43:50.850Z,97.61596
2022-11-02T15:48:52.491Z,99.16373
2022-11-02T15:53:54.083Z,104
2022-11-02T15:58:55.740Z,112.76712
2022-11-02T16:03:58.570Z,110.48649
2022-11-02T16:09:00.690Z,109.14745
2022-11-02T16:14:09.026Z,106.96296
2022-11-02T16:19:11.186Z,103.17313
2022-11-02T16:24:12.879Z,100.743
2022-11-02T16:29:14.517Z,107.39523
2022-11-02T16:34:16.302Z,102.76289
2022-11-02T16:39:17.901Z,104.83551
2022-11-02T16:44:19.522Z,108.26667
2022-11-02T16:49:21.127Z,108.26667
2022-11-02T16:54:22.710Z,108.26667
2022-11-02T16:59:24.361Z,119
2022-11-02T17:04:26.053Z,117.03371
2022-11-02T17:09:27.666Z,131.23404
2022-11-02T17:14:29.259Z,155.68385
2022-11-02T17:19:30.896Z,175.57895
2022-11-02T17:24:32.668Z,194.4065
2022-11-02T17:29:34.299Z,172.14815
2022-11-02T17:34:36.126Z,193.39271
2022-11-02T17:39:37.777Z,208.37768
2022-11-02T17:44:39.878Z,253.54774
2022-11-02T17:49:41.628Z,266.51309
2022-11-02T17:54:43.277Z,317.33333
2022-11-02T17:59:44.944Z,284.33149
2022-11-02T18:04:47.151Z,233.20188
2022-11-02T18:09:49.026Z,282.46154
2022-11-02T18:14:50.678Z,319.60976
2022-11-02T18:19:52.283Z,351.94702
2022-11-02T18:24:53.940Z,296
2022-11-02T18:29:55.517Z,338.87179
2022-11-02T18:34:57.092Z,380.87943
2022-11-02T18:39:58.709Z,453.09091
2022-11-02T18:45:00.345Z,377.80282
2022-11-02T18:50:01.949Z,363.04762
2022-11-02T18:55:03.588Z,414.22901
2022-11-02T19:00:05.248Z,414.22901
2022-11-02T19:05:06.897Z,444.81301
2022-11-02T19:10:08.480Z,542.05825
2022-11-02T19:15:10.158Z,484.35088
2022-11-02T19:20:11.761Z,429.03937
2022-11-02T19:25:13.379Z,421.51938
2022-11-02T19:30:14.979Z,425.25
2022-11-02T19:35:16.587Z,572.57143
2022-11-02T19:40:18.263Z,504
2022-11-02T19:45:19.870Z,566.22222
2022-11-02T19:50:21.733Z,799.55556
2022-11-02T19:55:23.519Z,714
2022-11-02T20:00:25.097Z,733.74359
2022-11-02T20:05:26.677Z,744
2022-11-02T20:10:28.288Z,836.75362
2022-11-02T20:15:29.900Z,686.16867
2022-11-02T20:20:31.478Z,733.74359
2022-11-02T20:25:33.142Z,1064
2022-11-02T20:30:34.744Z,1044
2022-11-02T20:35:36.333Z,1024.70175
2022-11-02T20:40:41.081Z,1201.14286
2022-11-02T20:45:43.121Z,906.5
2022-11-02T20:50:44.715Z,937.54839
2022-11-02T20:55:46.395Z,921.77778
2022-11-02T21:00:48.089Z,824
2022-11-02T21:05:49.758Z,921.77778
2022-11-02T21:10:51.600Z,937.54839
2022-11-02T21:15:54.336Z,953.83607
2022-11-02T21:20:55.881Z,953.83607
2022-11-02T21:25:57.478Z,668.70588
2022-11-02T21:30:59.094Z,891.69231
2022-11-02T21:36:00.743Z,704.49383
2022-11-02T21:41:02.351Z,484.35088
2022-11-02T21:46:03.997Z,811.60563
2022-11-02T21:51:05.811Z,799.55556
2022-11-02T21:56:07.405Z,686.16867
2022-11-02T22:01:09.143Z,937.54839
2022-11-02T22:06:10.840Z,776.43243
2022-11-02T22:11:12.426Z,811.60563
2022-11-02T22:16:14.017Z,906.5
2022-11-02T22:21:15.651Z,921.77778
2022-11-02T22:26:17.466Z,1084.74074
2022-11-02T22:31:19.119Z,1044
2022-11-02T22:36:20.815Z,1106.26415
2022-11-02T22:41:22.464Z,1128.61538
2022-11-02T22:46:24.075Z,937.54839
2022-11-02T22:51:25.720Z,921.77778
2022-11-02T22:56:27.386Z,811.60563
2022-11-02T23:01:29.159Z,723.74684
2022-11-02T23:06:30.899Z,677.33333
2022-11-02T23:11:32.504Z,714
2022-11-02T23:16:34.213Z,677.33333
2022-11-02T23:21:35.806Z,644
2022-11-02T23:26:37.484Z,572.57143
2022-11-02T23:31:39.119Z,579.05155
2022-11-02T23:36:40.763Z,448.91803
2022-11-02T23:41:42.515Z,403.70149
2022-11-02T23:46:44.200Z,333.87342
2022-11-02T23:51:45.792Z,300.06936
2022-11-02T23:56:47.433Z,256.69036
